Time;durP1;ratioP1;P1;durP2;ratioP2;P2;SDS_P1;SDS_P2;PMS_P1;PMS_P2;Temp;Humidity;BMP_temperature;BMP_pressure;BME280_temperature;BME280_humidity;BME280_pressure;Samples;Min_cycle;Max_cycle;Signal;HPM_P1;HPM_P2
2024/02/24 14:53:58;;;;;;;1.57;1.10;;;22.00;92.70;;;;;;6328860;27;20566;-61
2024/02/24 14:57:03;;;;;;;4.00;1.40;;;22.60;69.40;;;;;;6267266;27;63790;-65
2024/02/24 15:00:17;;;;;;;1.53;1.20;;;22.90;66.50;;;;;;6286894;28;20195;-57
2024/02/24 15:03:24;;;;;;;2.17;1.60;;;23.10;64.70;;;;;;6278781;28;20203;-63
2024/02/24 15:06:39;;;;;;;3.43;1.60;;;23.20;64.00;;;;;;6151716;28;57868;-75
2024/02/24 15:09:51;;;;;;;3.37;1.23;;;23.30;54.10;;;;;;6273112;28;20226;-67
2024/02/24 15:12:55;;;;;;;1.90;1.33;;;20.30;44.00;;;;;;6298365;28;20310;-66
2024/02/24 15:16:02;;;;;;;2.30;0.97;;;17.00;48.90;;;;;;6266251;28;20384;-67
2024/02/24 15:19:08;;;;;;;2.03;1.13;;;16.20;50.90;;;;;;6293116;28;20473;-64
2024/02/24 15:22:23;;;;;;;6.07;1.40;;;15.10;52.40;;;;;;6314346;28;20465;-64
2024/02/24 15:25:50;;;;;;;2.10;1.20;;;13.90;54.90;;;;;;6272041;28;20808;-67
2024/02/24 15:28:58;;;;;;;2.17;1.10;;;13.30;56.70;;;;;;6300319;28;20471;-65
2024/02/24 15:32:11;;;;;;;3.43;1.77;;;13.00;56.90;;;;;;6293868;28;20564;-69
2024/02/24 15:35:18;;;;;;;4.30;2.10;;;12.70;57.90;;;;;;6277114;28;20480;-67
2024/02/24 15:38:27;;;;;;;5.27;2.23;;;12.50;58.50;;;;;;6285645;28;20471;-66
2024/02/24 15:41:34;;;;;;;5.43;1.93;;;12.50;58.60;;;;;;6290934;28;20457;-70
2024/02/24 15:44:56;;;;;;;3.13;1.50;;;12.40;59.00;;;;;;6292647;28;20623;-70
2024/02/24 15:48:11;;;;;;;3.33;1.47;;;12.30;59.10;;;;;;6288900;28;20445;-69
2024/02/24 15:51:19;;;;;;;2.83;1.67;;;12.20;59.30;;;;;;6289217;28;20470;-69
2024/02/24 15:54:26;;;;;;;2.87;1.50;;;12.10;59.90;;;;;;6292075;28;20473;-68
2024/02/24 15:57:45;;;;;;;3.93;1.80;;;11.90;60.40;;;;;;6295414;28;20473;-68
2024/02/24 16:01:03;;;;;;;3.33;1.70;;;11.80;61.10;;;;;;6294381;28;20469;-65
2024/02/24 16:04:10;;;;;;;7.27;2.47;;;11.70;61.70;;;;;;6282254;28;20503;-65
2024/02/24 16:07:19;;;;;;;5.03;2.30;;;11.70;62.00;;;;;;6274982;28;20602;-65
2024/02/24 16:10:27;;;;;;;3.10;2.30;;;11.70;62.60;;;;;;6275885;28;20457;-65
2024/02/24 16:13:38;;;;;;;6.97;1.97;;;11.50;63.00;;;;;;6260238;28;20440;-66
2024/02/24 16:16:43;;;;;;;2.43;1.63;;;11.40;63.70;;;;;;6252217;28;20467;-67
2024/02/24 16:19:56;;;;;;;4.20;1.50;;;11.30;64.00;;;;;;6253772;28;20526;-66
2024/02/24 16:23:12;;;;;;;4.00;1.83;;;11.20;63.90;;;;;;6251778;28;20443;-67
2024/02/24 16:26:17;;;;;;;3.17;1.90;;;11.10;64.20;;;;;;6233028;28;20460;-66
2024/02/24 16:29:36;;;;;;;4.30;1.93;;;11.00;64.10;;;;;;6250870;28;20443;-67
2024/02/24 16:32:52;;;;;;;4.07;1.77;;;10.80;64.60;;;;;;6247439;28;20530;-67
2024/02/24 16:36:02;;;;;;;3.90;1.60;;;10.70;64.50;;;;;;6249522;28;20560;-66
2024/02/24 16:39:09;;;;;;;2.87;1.37;;;10.60;64.40;;;;;;6250962;28;20455;-67
2024/02/24 16:42:14;;;;;;;5.23;1.83;;;10.60;64.40;;;;;;6241387;28;20534;-67
2024/02/24 16:45:20;;;;;;;4.00;1.63;;;10.50;64.70;;;;;;6250800;28;20477;-67
2024/02/24 16:48:35;;;;;;;2.37;1.90;;;10.40;65.20;;;;;;6250532;28;20545;-67
2024/02/24 16:51:40;;;;;;;4.03;2.00;;;10.40;65.80;;;;;;6249676;28;20562;-67
2024/02/24 16:58:10;;;;;;;5.60;2.17;;;10.40;65.50;;;;;;6238812;28;20451;-67
2024/02/24 17:01:18;;;;;;;5.20;1.97;;;10.40;66.10;;;;;;6233699;28;20762;-67
2024/02/24 17:04:32;;;;;;;8.40;2.43;;;10.30;66.10;;;;;;6249459;28;20665;-66
2024/02/24 17:07:40;;;;;;;8.33;2.50;;;10.30;66.80;;;;;;6234350;28;20780;-67
2024/02/24 17:10:50;;;;;;;4.80;2.80;;;10.20;66.80;;;;;;6250547;28;20462;-66
2024/02/24 17:14:06;;;;;;;3.50;2.70;;;10.10;66.90;;;;;;6247598;28;20483;-67
2024/02/24 17:17:15;;;;;;;3.90;2.23;;;10.10;66.90;;;;;;6242929;28;20915;-67
2024/02/24 17:23:50;;;;;;;5.03;3.00;;;9.90;67.50;;;;;;6234918;28;20448;-67
2024/02/24 17:26:57;;;;;;;4.63;2.67;;;9.80;68.00;;;;;;6245583;28;20463;-67
2024/02/24 17:30:02;;;;;;;5.13;2.50;;;9.80;67.60;;;;;;6246816;28;20455;-67
2024/02/24 17:36:39;;;;;;;3.50;3.20;;;9.60;67.40;;;;;;6249523;28;20593;-66
2024/02/24 17:39:47;;;;;;;6.00;2.80;;;9.60;67.50;;;;;;6230613;28;20590;-66
2024/02/24 17:42:59;;;;;;;1.77;1.67;;;9.60;67.40;;;;;;6233261;28;20450;-65
2024/02/24 17:46:05;;;;;;;5.93;2.27;;;9.60;67.10;;;;;;6248878;28;20463;-65
2024/02/24 17:49:28;;;;;;;3.53;2.80;;;9.60;67.00;;;;;;6249245;28;20450;-66
2024/02/24 17:52:36;;;;;;;5.10;4.60;;;9.60;67.30;;;;;;6244856;28;20951;-66
2024/02/24 17:55:48;;;;;;;4.40;2.70;;;9.60;67.00;;;;;;6234042;28;20910;-66
2024/02/24 17:58:55;;;;;;;6.80;4.10;;;9.70;67.10;;;;;;6249008;28;20517;-65
2024/02/24 18:02:09;;;;;;;5.00;2.50;;;9.70;66.90;;;;;;6248579;28;20451;-66
2024/02/24 18:05:20;;;;;;;5.13;3.30;;;9.70;66.80;;;;;;6247781;28;20490;-66
2024/02/24 18:08:28;;;;;;;4.17;3.13;;;9.60;67.00;;;;;;6249569;28;20463;-67
2024/02/24 18:11:48;;;;;;;6.77;4.30;;;9.60;67.10;;;;;;6232276;28;20454;-66
2024/02/24 18:15:02;;;;;;;4.23;2.97;;;9.50;67.30;;;;;;6231781;28;20500;-67
2024/02/24 18:18:16;;;;;;;3.77;3.33;;;9.50;67.30;;;;;;6248481;28;20486;-66
2024/02/24 18:21:28;;;;;;;3.87;2.60;;;9.40;68.00;;;;;;6248154;28;20623;-66
2024/02/24 18:24:35;;;;;;;4.07;3.30;;;9.40;67.50;;;;;;6247746;28;20475;-65
2024/02/24 18:27:49;;;;;;;9.10;4.00;;;9.40;68.30;;;;;;6223203;28;20481;-66
2024/02/24 18:30:57;;;;;;;6.73;3.50;;;9.30;68.20;;;;;;6241853;28;20459;-66
2024/02/24 18:34:02;;;;;;;6.13;3.07;;;9.20;68.40;;;;;;6247281;28;21327;-67
2024/02/24 18:37:42;;;;;;;10.17;3.10;;;9.20;68.10;;;;;;6247102;28;20480;-66
2024/02/24 18:40:52;;;;;;;12.23;8.70;;;9.10;67.70;;;;;;6243182;28;20485;-66
2024/02/24 18:43:59;;;;;;;13.37;9.27;;;9.00;69.10;;;;;;6247555;28;20549;-67
2024/02/24 18:47:15;;;;;;;9.83;6.00;;;8.90;70.20;;;;;;6248006;28;20841;-66
2024/02/24 18:50:26;;;;;;;14.53;7.60;;;8.80;70.80;;;;;;6247796;28;20444;-67
2024/02/24 18:53:46;;;;;;;7.37;4.67;;;8.60;70.90;;;;;;6240508;28;20488;-67
2024/02/24 18:57:03;;;;;;;14.67;8.53;;;8.60;71.40;;;;;;6240176;28;20542;-66
2024/02/24 19:00:14;;;;;;;12.40;8.50;;;8.50;73.20;;;;;;6247478;28;20483;-66
2024/02/24 19:03:27;;;;;;;11.20;6.70;;;8.30;73.50;;;;;;6241613;28;20578;-66
2024/02/24 19:06:38;;;;;;;8.07;6.17;;;8.20;73.50;;;;;;6246882;28;20490;-67
2024/02/24 19:10:13;;;;;;;10.03;9.00;;;8.10;73.70;;;;;;6231677;28;20455;-66
2024/02/24 19:13:21;;;;;;;8.40;7.37;;;7.90;75.00;;;;;;6246386;28;20478;-65
2024/02/24 19:16:34;;;;;;;13.87;8.83;;;7.80;75.20;;;;;;6249011;28;20851;-66
2024/02/24 19:19:48;;;;;;;11.63;8.10;;;7.60;75.50;;;;;;6245804;28;20522;-65
2024/02/24 19:23:01;;;;;;;10.67;8.50;;;7.50;76.20;;;;;;6238768;28;20458;-68
2024/02/24 19:26:39;;;;;;;7.33;6.20;;;7.40;76.90;;;;;;6250822;28;21085;-65
2024/02/24 19:29:52;;;;;;;7.13;6.03;;;7.30;77.30;;;;;;6268192;28;20464;-65
2024/02/24 19:33:22;;;;;;;5.87;5.03;;;7.30;78.20;;;;;;6263976;28;20738;-65
2024/02/24 19:36:35;;;;;;;8.60;5.53;;;7.10;78.10;;;;;;6268848;28;20474;-65
2024/02/24 19:39:53;;;;;;;7.73;5.80;;;7.00;78.00;;;;;;6272428;28;20435;-64
2024/02/24 19:43:14;;;;;;;8.80;6.77;;;7.00;78.20;;;;;;6273305;28;20450;-65
2024/02/24 19:46:29;;;;;;;8.73;6.67;;;6.90;78.60;;;;;;6274260;28;20486;-66
2024/02/24 19:49:41;;;;;;;12.03;6.97;;;6.80;78.80;;;;;;6265370;28;20481;-68
2024/02/24 19:53:00;;;;;;;11.80;7.53;;;6.80;79.30;;;;;;6275215;28;20540;-64
2024/02/24 19:56:12;;;;;;;9.13;6.90;;;6.60;79.50;;;;;;6273194;28;21032;-66
2024/02/24 19:59:42;;;;;;;9.60;7.37;;;6.60;80.00;;;;;;6269569;28;20823;-67
2024/02/24 20:02:54;;;;;;;13.13;7.23;;;6.50;80.30;;;;;;6253931;28;20941;-65
2024/02/24 20:06:07;;;;;;;9.07;6.93;;;6.50;80.60;;;;;;6276973;28;20533;-66
2024/02/24 20:09:41;;;;;;;9.93;6.17;;;6.40;80.80;;;;;;6257432;28;20728;-67
2024/02/24 20:13:01;;;;;;;8.37;5.83;;;6.30;81.20;;;;;;6274601;28;20518;-68
2024/02/24 20:16:14;;;;;;;9.33;5.43;;;6.30;81.50;;;;;;6274504;28;20486;-71
2024/02/24 20:19:34;;;;;;;9.30;5.40;;;6.20;81.80;;;;;;6264688;28;20450;-69
2024/02/24 20:22:54;;;;;;;7.83;5.43;;;6.20;82.10;;;;;;6267637;28;20572;-68
2024/02/24 20:26:16;;;;;;;9.20;5.43;;;6.20;82.20;;;;;;6258699;28;20500;-69
2024/02/24 20:29:43;;;;;;;12.70;7.37;;;6.20;82.20;;;;;;6271953;28;20439;-70
2024/02/24 20:33:07;;;;;;;16.30;7.47;;;6.10;82.20;;;;;;6280076;28;20799;-67
2024/02/24 20:36:23;;;;;;;20.37;9.87;;;6.10;82.50;;;;;;6281442;28;20495;-68
2024/02/24 20:39:30;;;;;;;18.90;9.87;;;6.10;82.40;;;;;;6271510;28;21171;-71
2024/02/24 20:42:40;;;;;;;13.50;8.17;;;6.10;82.30;;;;;;6274438;28;20462;-72
2024/02/24 20:45:52;;;;;;;11.10;7.77;;;6.00;82.50;;;;;;6274651;28;20473;-69
2024/02/24 20:49:21;;;;;;;13.70;8.50;;;6.00;82.50;;;;;;6274898;28;20732;-66
2024/02/24 20:52:29;;;;;;;15.00;8.57;;;5.90;82.80;;;;;;6274152;28;20951;-70
2024/02/24 20:55:43;;;;;;;8.13;6.50;;;5.90;83.60;;;;;;6276203;28;20486;-67
2024/02/24 20:58:52;;;;;;;8.27;6.97;;;5.80;83.60;;;;;;6277035;28;20454;-66
2024/02/24 21:02:11;;;;;;;7.63;6.83;;;5.80;83.80;;;;;;6289340;28;20439;-70
2024/02/24 21:05:33;;;;;;;11.10;7.17;;;5.80;84.00;;;;;;6274669;28;20769;-65
2024/02/24 21:08:41;;;;;;;12.63;7.30;;;5.80;84.20;;;;;;6274811;28;20525;-69
2024/02/24 21:11:51;;;;;;;11.27;8.53;;;5.80;84.30;;;;;;6275315;28;20454;-63
2024/02/24 21:15:08;;;;;;;9.00;6.80;;;5.70;84.20;;;;;;6272895;28;20525;-62
2024/02/24 21:18:23;;;;;;;10.77;8.23;;;5.70;84.40;;;;;;6251218;28;20456;-63
2024/02/24 21:21:46;;;;;;;13.07;8.43;;;5.60;84.80;;;;;;6271211;28;20537;-62
2024/02/24 21:25:06;;;;;;;11.20;8.23;;;5.60;85.40;;;;;;6275808;28;20576;-62
2024/02/24 21:28:16;;;;;;;12.67;8.57;;;5.50;85.60;;;;;;6259569;28;20496;-62
2024/02/24 21:31:25;;;;;;;7.43;6.67;;;5.50;85.70;;;;;;6273800;28;20447;-64
2024/02/24 21:34:37;;;;;;;7.33;6.60;;;5.50;85.80;;;;;;6267232;28;20646;-63
2024/02/24 21:37:58;;;;;;;14.27;7.90;;;5.50;85.80;;;;;;6273450;28;20477;-63
2024/02/24 21:41:15;;;;;;;10.57;6.37;;;5.40;85.80;;;;;;6265074;28;20443;-63
2024/02/24 21:44:18;;;;;;;9.80;7.80;;;5.40;85.90;;;;;;6264835;28;20874;-63
2024/02/24 21:47:22;;;;;;;10.07;7.30;;;5.40;86.80;;;;;;6273004;28;20793;-63
2024/02/24 21:50:25;;;;;;;9.03;7.13;;;5.40;86.10;;;;;;6273230;28;20488;-63
2024/02/24 21:53:30;;;;;;;8.43;6.43;;;5.30;86.00;;;;;;6272968;28;20478;-63
2024/02/24 21:56:37;;;;;;;10.47;7.10;;;5.30;86.00;;;;;;6273322;28;20474;-63
2024/02/24 21:59:48;;;;;;;9.40;6.27;;;5.20;86.00;;;;;;6271636;28;20446;-63
2024/02/24 22:02:53;;;;;;;6.80;5.80;;;5.20;86.00;;;;;;6272633;28;20442;-63
2024/02/24 22:06:12;;;;;;;9.03;6.33;;;5.10;86.10;;;;;;6256722;28;20902;-63
2024/02/24 22:09:25;;;;;;;10.80;6.13;;;5.10;86.10;;;;;;6273166;28;20442;-62
2024/02/24 22:12:34;;;;;;;6.30;5.67;;;5.00;86.10;;;;;;6273513;28;20463;-63
2024/02/24 22:15:40;;;;;;;8.40;6.80;;;5.00;86.10;;;;;;6273203;28;21316;-62
2024/02/24 22:18:52;;;;;;;6.00;5.40;;;4.90;86.40;;;;;;6273630;28;20885;-63
2024/02/24 22:22:19;;;;;;;7.20;6.50;;;4.90;86.80;;;;;;6272045;28;20482;-62
2024/02/24 22:25:29;;;;;;;9.70;5.27;;;4.80;86.80;;;;;;6272347;28;20462;-63
2024/02/24 22:28:33;;;;;;;13.30;5.53;;;4.80;88.60;;;;;;6272358;28;20556;-63
2024/02/24 22:31:54;;;;;;;8.80;6.20;;;4.80;88.80;;;;;;6271890;28;20531;-63
2024/02/24 22:35:09;;;;;;;8.23;5.80;;;4.70;88.50;;;;;;6271452;28;20563;-63
2024/02/24 22:38:22;;;;;;;8.90;5.10;;;4.80;88.90;;;;;;6270651;28;20548;-62
2024/02/24 22:41:34;;;;;;;6.80;5.37;;;4.70;88.30;;;;;;6266175;28;21261;-63
2024/02/24 22:44:43;;;;;;;8.50;4.87;;;4.60;87.80;;;;;;6260120;28;20543;-63
2024/02/24 22:47:48;;;;;;;10.10;5.83;;;4.50;87.70;;;;;;6268224;28;20457;-62
2024/02/24 22:51:09;;;;;;;5.57;4.97;;;4.50;87.60;;;;;;6272738;28;21010;-65
2024/02/24 22:54:16;;;;;;;6.73;5.73;;;4.50;87.70;;;;;;6272757;28;20557;-65
2024/02/24 22:57:29;;;;;;;8.10;5.10;;;4.40;87.60;;;;;;6272639;28;20479;-64
2024/02/24 23:00:34;;;;;;;7.03;5.20;;;4.30;87.60;;;;;;6265329;28;20492;-65
2024/02/24 23:03:43;;;;;;;8.20;5.40;;;4.30;87.60;;;;;;6274548;28;20476;-64
2024/02/24 23:06:58;;;;;;;6.73;4.80;;;4.20;87.50;;;;;;6273211;28;20855;-65
2024/02/24 23:10:08;;;;;;;8.37;5.40;;;4.10;87.40;;;;;;6261396;28;20744;-65
2024/02/24 23:13:24;;;;;;;7.20;5.23;;;4.10;87.60;;;;;;6273611;28;20461;-65
2024/02/24 23:16:33;;;;;;;6.30;5.60;;;4.00;88.60;;;;;;6264781;28;20493;-65
2024/02/24 23:19:39;;;;;;;8.63;6.30;;;4.00;88.80;;;;;;6277024;28;20448;-65
2024/02/24 23:22:47;;;;;;;6.40;5.50;;;3.90;88.80;;;;;;6276983;28;20525;-65
2024/02/24 23:26:01;;;;;;;11.80;6.03;;;3.80;88.60;;;;;;6277235;28;20798;-65
2024/02/24 23:29:23;;;;;;;6.60;5.60;;;3.80;88.70;;;;;;6276884;28;20450;-64
2024/02/24 23:32:42;;;;;;;6.60;5.90;;;3.70;88.90;;;;;;6274884;28;20470;-64
2024/02/24 23:35:58;;;;;;;6.93;5.67;;;3.60;89.20;;;;;;6275829;28;20485;-65
2024/02/24 23:39:13;;;;;;;8.30;6.40;;;3.60;89.70;;;;;;6264289;28;20591;-65
2024/02/24 23:42:18;;;;;;;5.60;4.70;;;3.60;89.90;;;;;;6273602;28;20464;-64
2024/02/24 23:45:34;;;;;;;8.50;6.20;;;3.60;90.10;;;;;;6274306;28;20515;-64
2024/02/24 23:48:46;;;;;;;7.00;6.30;;;3.60;90.60;;;;;;6274339;28;20518;-64
2024/02/24 23:51:59;;;;;;;7.23;4.97;;;3.60;90.90;;;;;;6272781;28;20458;-65
2024/02/24 23:55:06;;;;;;;6.60;6.00;;;3.60;90.90;;;;;;6272505;28;20466;-64
2024/02/24 23:58:16;;;;;;;6.93;5.70;;;3.60;91.40;;;;;;6260408;28;20575;-64
